Time;durP1;ratioP1;P1;durP2;ratioP2;P2;SDS_P1;SDS_P2;PMS_P1;PMS_P2;Temp;Humidity;BMP_temperature;BMP_pressure;BME280_temperature;BME280_humidity;BME280_pressure;Samples;Min_cycle;Max_cycle;Signal;HPM_P1;HPM_P2
2022/10/19 00:00:24;;;;;;;16.77;6.78;;;9.70;99.90;;;;;;5096529;28;20029;-72
2022/10/19 00:02:50;;;;;;;15.77;6.78;;;9.60;99.90;;;;;;5103355;28;20031;-71
2022/10/19 00:05:16;;;;;;;13.77;6.30;;;9.60;99.90;;;;;;5102717;28;20024;-72
2022/10/19 00:07:41;;;;;;;14.75;6.38;;;9.50;99.90;;;;;;5109277;28;20016;-72
2022/10/19 00:10:07;;;;;;;15.48;6.55;;;9.50;99.90;;;;;;5110007;28;20030;-71
2022/10/19 00:12:33;;;;;;;16.42;6.97;;;9.50;99.90;;;;;;5112468;28;20100;-71
2022/10/19 00:14:59;;;;;;;18.63;7.05;;;9.50;99.90;;;;;;5114005;28;20036;-71
2022/10/19 00:17:25;;;;;;;19.05;6.75;;;9.40;99.90;;;;;;5113027;28;20023;-72
2022/10/19 00:19:50;;;;;;;18.67;6.70;;;9.40;99.90;;;;;;5112672;28;20028;-71
2022/10/19 00:22:16;;;;;;;18.20;7.28;;;9.40;99.90;;;;;;5113504;28;20031;-71
2022/10/19 00:24:42;;;;;;;18.15;7.38;;;9.30;99.90;;;;;;5112692;28;20471;-71
2022/10/19 00:27:08;;;;;;;13.68;7.35;;;9.30;99.90;;;;;;5104708;28;20024;-71
2022/10/19 00:29:33;;;;;;;19.70;7.05;;;9.30;99.90;;;;;;5109607;28;20077;-71
2022/10/19 00:31:59;;;;;;;16.83;8.05;;;9.30;99.90;;;;;;5112504;28;20036;-72
2022/10/19 00:34:25;;;;;;;13.98;7.22;;;9.20;99.90;;;;;;5108230;28;20027;-71
2022/10/19 00:36:50;;;;;;;13.43;6.75;;;9.20;99.90;;;;;;5112807;28;20024;-72
2022/10/19 00:39:17;;;;;;;15.40;7.72;;;9.20;99.90;;;;;;5107566;28;20019;-71
2022/10/19 00:41:44;;;;;;;17.02;6.82;;;9.20;99.90;;;;;;5108750;28;20028;-71
2022/10/19 00:44:14;;;;;;;15.93;7.25;;;9.10;99.90;;;;;;5094891;28;20076;-72
2022/10/19 00:46:47;;;;;;;12.18;6.50;;;9.10;99.90;;;;;;5112164;28;20023;-71
2022/10/19 00:49:18;;;;;;;16.35;6.82;;;9.10;99.90;;;;;;5106089;28;20388;-72
2022/10/19 00:51:50;;;;;;;13.25;5.93;;;9.10;99.90;;;;;;5111631;28;20110;-71
2022/10/19 00:54:17;;;;;;;18.52;6.80;;;9.00;99.90;;;;;;5112674;28;20034;-72
2022/10/19 00:56:44;;;;;;;13.07;6.13;;;9.00;99.90;;;;;;5112452;28;20065;-72
2022/10/19 00:59:13;;;;;;;17.60;6.82;;;9.00;99.90;;;;;;5111029;28;20038;-71
2022/10/19 01:01:39;;;;;;;17.73;6.65;;;8.90;99.90;;;;;;5107441;28;20133;-71
2022/10/19 01:04:05;;;;;;;14.50;7.22;;;8.90;99.90;;;;;;5098427;28;20035;-71
2022/10/19 01:06:32;;;;;;;12.52;6.78;;;8.90;99.90;;;;;;5103133;28;20024;-71
2022/10/19 01:08:57;;;;;;;19.40;6.72;;;8.90;99.90;;;;;;5104425;28;20105;-72
2022/10/19 01:12:02;;;;;;;15.18;6.72;;;8.90;99.90;;;;;;5101770;28;20094;-73
2022/10/19 01:14:46;;;;;;;15.95;7.43;;;8.90;99.90;;;;;;5068029;28;20032;-71
2022/10/19 01:17:29;;;;;;;14.15;6.47;;;8.80;99.90;;;;;;5110215;28;20483;-71
2022/10/19 01:20:13;;;;;;;13.70;6.93;;;8.80;99.90;;;;;;5111740;28;20118;-72
2022/10/19 01:23:04;;;;;;;14.85;6.72;;;8.80;99.90;;;;;;5111456;28;20383;-72
2022/10/19 01:25:52;;;;;;;12.73;6.65;;;8.80;99.90;;;;;;5106164;28;20084;-73
2022/10/19 01:28:39;;;;;;;21.83;7.03;;;8.70;99.90;;;;;;5096177;28;20016;-72
2022/10/19 01:31:35;;;;;;;11.20;6.40;;;8.70;99.90;;;;;;5086319;28;20539;-72
2022/10/19 01:34:15;;;;;;;;;;;8.70;99.90;;;;;;4989742;28;20053;-72
2022/10/19 01:36:44;;;;;;;12.00;6.82;;;8.60;99.90;;;;;;5006228;28;19920;-72
2022/10/19 01:39:22;;;;;;;15.50;6.60;;;8.60;99.90;;;;;;5008537;28;20044;-71
2022/10/19 01:41:59;;;;;;;12.95;6.15;;;8.60;99.90;;;;;;5008387;28;20037;-71
2022/10/19 01:44:36;;;;;;;13.40;6.70;;;8.60;99.90;;;;;;5009272;28;20038;-72
2022/10/19 01:47:14;;;;;;;14.82;6.60;;;8.60;99.90;;;;;;4994833;28;20080;-72
2022/10/19 01:49:53;;;;;;;13.43;6.32;;;8.60;99.90;;;;;;5007567;28;20385;-71
2022/10/19 01:52:21;;;;;;;8.50;5.88;;;8.60;99.90;;;;;;5005605;28;20049;-72
2022/10/19 01:54:52;;;;;;;12.00;6.70;;;8.60;99.90;;;;;;5008534;28;20048;-72
2022/10/19 01:57:32;;;;;;;11.95;6.20;;;8.50;99.90;;;;;;5008415;28;20398;-71
2022/10/19 01:59:58;;;;;;;12.57;6.13;;;8.50;99.90;;;;;;5004828;28;20038;-71
2022/10/19 02:02:27;;;;;;;16.30;6.78;;;8.50;99.90;;;;;;5008155;28;20030;-73
2022/10/19 02:04:56;;;;;;;13.02;7.10;;;8.50;99.90;;;;;;5002452;28;20046;-72
2022/10/19 02:07:23;;;;;;;16.73;7.50;;;8.50;99.90;;;;;;5004172;28;20057;-71
2022/10/19 02:09:49;;;;;;;11.73;6.60;;;8.40;99.90;;;;;;5010226;28;20045;-71
2022/10/19 02:12:15;;;;;;;11.73;7.32;;;8.40;99.90;;;;;;5051228;28;20025;-71
2022/10/19 02:14:49;;;;;;;13.40;8.05;;;8.40;99.90;;;;;;5051409;28;20063;-72
2022/10/19 02:17:20;;;;;;;12.50;7.57;;;8.40;99.90;;;;;;5061507;28;20036;-72
2022/10/19 02:19:45;;;;;;;17.58;8.82;;;8.40;99.90;;;;;;5066338;28;20139;-71
2022/10/19 02:22:11;;;;;;;18.02;10.23;;;8.30;99.90;;;;;;5060402;28;20536;-72
2022/10/19 02:24:37;;;;;;;22.73;10.55;;;8.40;99.90;;;;;;5056280;28;20029;-71
2022/10/19 02:27:05;;;;;;;21.33;11.00;;;8.40;99.90;;;;;;5063154;28;20671;-72
2022/10/19 02:29:32;;;;;;;21.75;11.38;;;8.40;99.90;;;;;;5063946;28;20025;-72
2022/10/19 02:31:58;;;;;;;16.50;11.27;;;8.40;99.90;;;;;;5056392;28;20017;-72
2022/10/19 02:34:24;;;;;;;23.15;11.65;;;8.40;99.90;;;;;;5058459;28;20155;-71
2022/10/19 02:36:50;;;;;;;18.83;11.68;;;8.40;99.90;;;;;;5050196;28;20092;-71
2022/10/19 02:39:16;;;;;;;20.65;11.48;;;8.40;99.90;;;;;;5058316;28;20016;-72
2022/10/19 02:41:48;;;;;;;17.92;11.05;;;8.40;99.90;;;;;;5067242;28;20157;-71
2022/10/19 02:44:23;;;;;;;20.20;12.15;;;8.50;99.90;;;;;;5069514;28;20433;-72
2022/10/19 02:46:54;;;;;;;18.00;10.95;;;8.50;99.90;;;;;;5070320;28;20021;-72
2022/10/19 02:49:20;;;;;;;24.52;12.40;;;8.40;99.90;;;;;;5066908;28;20400;-71
2022/10/19 02:52:01;;;;;;;18.90;12.32;;;8.40;99.90;;;;;;5108338;28;20038;-72
2022/10/19 02:54:27;;;;;;;18.95;11.25;;;8.40;99.90;;;;;;5093804;28;20419;-72
2022/10/19 02:56:52;;;;;;;20.30;11.77;;;8.40;99.90;;;;;;5099389;28;20019;-72
2022/10/19 02:59:18;;;;;;;21.60;12.27;;;8.40;99.90;;;;;;5109926;28;20099;-72
2022/10/19 03:01:44;;;;;;;20.90;11.38;;;8.40;99.90;;;;;;5103434;28;20028;-72
2022/10/19 03:04:09;;;;;;;18.17;11.43;;;8.30;99.90;;;;;;5103361;28;20419;-72
2022/10/19 03:06:35;;;;;;;22.85;12.07;;;8.30;99.90;;;;;;5109537;28;20031;-71
2022/10/19 03:09:00;;;;;;;23.27;12.88;;;8.30;99.90;;;;;;5110291;28;20030;-73
2022/10/19 03:11:26;;;;;;;22.50;12.93;;;8.30;99.90;;;;;;5108780;28;20061;-72
2022/10/19 03:13:51;;;;;;;22.60;13.38;;;8.30;99.90;;;;;;5109216;28;20471;-72
2022/10/19 03:16:17;;;;;;;21.17;13.95;;;8.30;99.90;;;;;;5106086;28;20559;-71
2022/10/19 03:18:43;;;;;;;23.88;13.98;;;8.30;99.90;;;;;;5110081;28;20030;-72
2022/10/19 03:21:11;;;;;;;20.98;13.57;;;8.30;99.90;;;;;;5110445;28;20528;-72
2022/10/19 03:23:37;;;;;;;24.67;14.40;;;8.30;99.90;;;;;;5109310;28;20035;-71
2022/10/19 03:26:04;;;;;;;27.20;14.45;;;8.30;99.90;;;;;;5110706;28;20094;-72
2022/10/19 03:28:30;;;;;;;23.50;13.90;;;8.30;99.90;;;;;;5109150;28;20035;-72
2022/10/19 03:30:56;;;;;;;32.92;16.55;;;8.30;99.90;;;;;;5105109;28;20038;-71
2022/10/19 03:33:22;;;;;;;29.92;16.48;;;8.30;99.90;;;;;;5095811;28;20025;-72
2022/10/19 03:35:47;;;;;;;30.83;17.50;;;8.30;99.90;;;;;;5110134;28;20032;-72
2022/10/19 03:38:13;;;;;;;32.85;17.27;;;8.30;99.90;;;;;;5102474;28;20107;-72
2022/10/19 03:40:39;;;;;;;35.55;17.65;;;8.30;99.90;;;;;;5109069;28;20058;-71
2022/10/19 03:43:04;;;;;;;32.35;17.33;;;8.30;99.90;;;;;;5104451;28;20424;-71
2022/10/19 03:45:30;;;;;;;26.42;15.02;;;8.30;99.90;;;;;;5102760;28;20035;-72
2022/10/19 03:47:56;;;;;;;24.75;14.80;;;8.20;99.90;;;;;;5105687;28;20020;-72
2022/10/19 03:50:21;;;;;;;24.65;14.32;;;8.30;99.90;;;;;;5110120;28;20418;-71
2022/10/19 03:52:50;;;;;;;23.70;14.10;;;8.30;99.90;;;;;;5113808;28;20331;-71
2022/10/19 03:55:16;;;;;;;23.63;13.52;;;8.20;99.90;;;;;;5113579;28;20495;-71
2022/10/19 03:57:42;;;;;;;20.90;13.38;;;8.20;99.90;;;;;;5113493;28;20039;-71
2022/10/19 04:00:09;;;;;;;24.83;13.02;;;8.20;99.90;;;;;;5114078;28;20020;-71
2022/10/19 04:02:34;;;;;;;25.25;12.30;;;8.20;99.90;;;;;;5111407;28;20035;-72
2022/10/19 04:05:00;;;;;;;22.80;11.30;;;8.20;99.90;;;;;;5100404;28;20033;-72
2022/10/19 04:07:25;;;;;;;21.65;11.77;;;8.20;99.90;;;;;;5107159;28;20103;-71
2022/10/19 04:09:51;;;;;;;16.80;12.00;;;8.20;99.90;;;;;;5107761;28;20507;-71
2022/10/19 04:12:17;;;;;;;21.35;12.68;;;8.20;99.90;;;;;;5093228;28;20085;-72
2022/10/19 04:14:42;;;;;;;19.27;12.43;;;8.20;99.90;;;;;;5105306;28;20051;-71
2022/10/19 04:17:08;;;;;;;20.92;11.98;;;8.20;99.90;;;;;;5104271;28;20415;-72
2022/10/19 04:19:34;;;;;;;18.02;11.95;;;8.20;99.90;;;;;;5107000;28;20102;-71
2022/10/19 04:21:59;;;;;;;20.90;12.70;;;8.20;99.90;;;;;;5101051;28;20127;-72
2022/10/19 04:24:25;;;;;;;18.70;12.25;;;8.30;99.90;;;;;;5113097;28;20035;-72
2022/10/19 04:26:54;;;;;;;16.63;12.18;;;8.20;99.90;;;;;;5105108;28;20437;-72
2022/10/19 04:29:21;;;;;;;21.92;10.50;;;8.20;99.90;;;;;;5110407;28;20073;-72
2022/10/19 04:31:48;;;;;;;17.02;10.02;;;8.20;99.90;;;;;;5111160;28;20024;-72
2022/10/19 04:34:14;;;;;;;11.43;8.52;;;8.30;99.90;;;;;;5105014;28;20027;-71
2022/10/19 04:36:40;;;;;;;14.43;8.75;;;8.20;99.90;;;;;;5109042;28;20020;-72
2022/10/19 04:39:06;;;;;;;14.15;7.80;;;8.20;99.90;;;;;;5109756;28;20077;-72
2022/10/19 04:41:32;;;;;;;13.18;7.28;;;8.20;99.90;;;;;;5110098;28;20114;-72
2022/10/19 04:44:00;;;;;;;13.35;7.20;;;8.20;99.90;;;;;;5109729;28;20102;-71
2022/10/19 04:46:27;;;;;;;8.27;6.85;;;8.20;99.90;;;;;;5104522;28;20081;-72
2022/10/19 04:48:53;;;;;;;12.48;6.55;;;8.20;99.90;;;;;;5105780;28;20044;-71
2022/10/19 04:51:19;;;;;;;10.68;7.20;;;8.20;99.90;;;;;;5107657;28;20027;-73
2022/10/19 04:53:46;;;;;;;13.13;6.53;;;8.20;99.90;;;;;;5108884;28;20028;-71
2022/10/19 04:56:16;;;;;;;12.65;6.72;;;8.20;99.90;;;;;;5108863;28;20464;-71
2022/10/19 04:58:42;;;;;;;9.43;6.30;;;8.20;99.90;;;;;;5089620;28;20038;-72
2022/10/19 05:01:20;;;;;;;9.68;6.35;;;8.10;99.90;;;;;;5107455;28;20028;-72
2022/10/19 05:03:46;;;;;;;10.85;6.18;;;8.20;99.90;;;;;;5101741;28;20050;-72
2022/10/19 05:06:13;;;;;;;7.95;6.10;;;8.10;99.90;;;;;;5103985;28;20015;-71
2022/10/19 05:08:39;;;;;;;9.10;6.40;;;8.10;99.90;;;;;;5111339;28;20024;-73
2022/10/19 05:11:10;;;;;;;10.60;6.13;;;8.10;99.90;;;;;;5104134;28;20567;-72
2022/10/19 05:13:36;;;;;;;7.30;6.00;;;8.10;99.90;;;;;;5102477;28;20029;-71
2022/10/19 05:16:04;;;;;;;10.25;5.90;;;8.10;99.90;;;;;;5105298;28;20028;-72
2022/10/19 05:18:30;;;;;;;12.27;5.95;;;8.10;99.90;;;;;;5103383;28;20020;-71
2022/10/19 05:21:12;;;;;;;10.98;5.82;;;8.00;99.90;;;;;;5084771;28;20031;-72
2022/10/19 05:23:39;;;;;;;8.13;5.40;;;8.00;99.90;;;;;;5109633;28;20031;-72
2022/10/19 05:26:09;;;;;;;9.68;6.00;;;8.00;99.90;;;;;;5111392;28;20072;-71
2022/10/19 05:28:35;;;;;;;10.88;6.38;;;8.00;99.90;;;;;;5109828;28;20341;-71
2022/10/19 05:31:18;;;;;;;13.98;5.97;;;8.00;99.90;;;;;;5111889;28;20034;-72
2022/10/19 05:33:44;;;;;;;8.35;5.43;;;7.90;99.90;;;;;;5103931;27;20039;-71
2022/10/19 05:36:09;;;;;;;9.90;5.28;;;7.90;99.90;;;;;;5111718;28;20126;-71
2022/10/19 05:38:35;;;;;;;11.27;5.40;;;7.90;99.90;;;;;;5111351;28;20240;-71
2022/10/19 05:41:00;;;;;;;11.25;5.80;;;7.90;99.90;;;;;;5112127;28;20028;-72
2022/10/19 05:43:26;;;;;;;10.05;5.90;;;7.80;99.90;;;;;;5111098;28;20031;-72
2022/10/19 05:45:51;;;;;;;11.40;5.88;;;7.80;99.90;;;;;;5101734;28;20039;-72
2022/10/19 05:48:17;;;;;;;11.70;6.15;;;7.80;99.90;;;;;;5092923;28;20036;-73
2022/10/19 05:50:52;;;;;;;14.60;6.25;;;7.80;99.90;;;;;;5099621;28;20048;-72
2022/10/19 05:53:17;;;;;;;9.45;5.55;;;7.80;99.90;;;;;;5103794;28;20043;-72
2022/10/19 05:55:43;;;;;;;13.73;6.25;;;7.80;99.90;;;;;;5112580;28;20108;-72
2022/10/19 05:58:08;;;;;;;13.10;6.40;;;7.80;99.90;;;;;;5110893;28;20084;-73
2022/10/19 06:00:34;;;;;;;11.93;6.55;;;7.80;99.90;;;;;;5111588;28;20526;-72
2022/10/19 06:02:59;;;;;;;17.48;7.00;;;7.80;99.90;;;;;;5091253;28;20499;-72
2022/10/19 06:05:25;;;;;;;12.00;6.03;;;7.80;99.90;;;;;;5090945;28;20438;-73
2022/10/19 06:07:50;;;;;;;11.45;6.10;;;7.80;99.90;;;;;;5102222;28;20024;-72
2022/10/19 06:10:16;;;;;;;14.48;6.45;;;7.80;99.90;;;;;;5100487;28;20598;-74
2022/10/19 06:12:42;;;;;;;11.20;5.88;;;7.80;99.90;;;;;;5109996;28;20099;-73
2022/10/19 06:15:07;;;;;;;10.82;6.82;;;7.80;99.90;;;;;;5091287;28;20065;-73
2022/10/19 06:17:33;;;;;;;15.10;7.78;;;7.80;99.90;;;;;;5091165;28;20066;-73
2022/10/19 06:19:58;;;;;;;13.43;7.35;;;7.80;99.90;;;;;;5092118;28;20024;-72
2022/10/19 06:22:24;;;;;;;14.25;7.78;;;7.80;99.90;;;;;;5092555;28;20020;-72
2022/10/19 06:24:50;;;;;;;18.45;8.27;;;7.80;99.90;;;;;;5100284;28;20038;-73
2022/10/19 06:27:15;;;;;;;14.43;7.82;;;7.80;99.90;;;;;;5110840;28;20020;-72
2022/10/19 06:29:41;;;;;;;18.63;7.75;;;7.80;99.90;;;;;;5077773;28;20035;-73
2022/10/19 06:32:06;;;;;;;16.63;8.05;;;7.90;99.90;;;;;;5109369;28;20027;-72
2022/10/19 06:34:32;;;;;;;15.63;8.43;;;7.80;99.90;;;;;;5107093;28;20035;-72
2022/10/19 06:36:57;;;;;;;14.98;7.57;;;7.90;99.90;;;;;;5110455;28;20372;-72
2022/10/19 06:39:23;;;;;;;14.73;7.32;;;7.90;99.90;;;;;;5105407;28;20019;-72
2022/10/19 06:41:48;;;;;;;12.65;7.45;;;7.90;99.90;;;;;;5102863;28;20113;-72
2022/10/19 06:44:14;;;;;;;17.65;7.05;;;8.00;99.90;;;;;;5095077;28;20028;-72
2022/10/19 06:46:39;;;;;;;18.05;8.48;;;8.00;99.90;;;;;;5107938;28;20024;-73
2022/10/19 06:49:05;;;;;;;14.98;7.88;;;8.00;99.90;;;;;;5089121;28;20128;-72
2022/10/19 06:51:32;;;;;;;15.60;8.50;;;8.00;99.90;;;;;;5103502;28;20050;-72
2022/10/19 06:53:58;;;;;;;15.88;7.68;;;8.10;99.90;;;;;;5109495;28;20023;-73
2022/10/19 06:56:25;;;;;;;14.35;7.18;;;8.10;99.90;;;;;;5103246;28;20020;-73
2022/10/19 06:58:51;;;;;;;14.45;7.30;;;8.20;99.90;;;;;;5090451;28;20016;-72
2022/10/19 07:01:17;;;;;;;18.13;7.75;;;8.20;99.90;;;;;;5106868;28;20024;-73
2022/10/19 07:03:42;;;;;;;11.48;6.43;;;8.20;99.90;;;;;;5109167;28;20038;-72
2022/10/19 07:06:10;;;;;;;17.95;6.82;;;8.20;99.90;;;;;;5109492;28;20387;-72
2022/10/19 07:08:38;;;;;;;15.63;6.88;;;8.20;99.90;;;;;;5108781;28;20055;-73
2022/10/19 07:11:06;;;;;;;8.73;6.18;;;8.20;99.90;;;;;;5108526;28;21234;-74
2022/10/19 07:13:32;;;;;;;19.40;6.70;;;8.30;99.90;;;;;;5091567;28;20067;-73
2022/10/19 07:16:05;;;;;;;12.15;6.15;;;8.30;99.90;;;;;;5090947;28;20055;-73
2022/10/19 07:18:32;;;;;;;13.20;6.95;;;8.30;99.90;;;;;;5107423;28;20089;-72
2022/10/19 07:21:00;;;;;;;13.10;6.35;;;8.40;99.90;;;;;;5109770;28;20398;-72
2022/10/19 07:23:27;;;;;;;12.00;6.35;;;8.40;99.90;;;;;;5107950;28;20035;-72
2022/10/19 07:25:54;;;;;;;13.20;6.22;;;8.40;99.90;;;;;;5110304;28;20035;-72
2022/10/19 07:28:22;;;;;;;10.93;6.32;;;8.50;99.90;;;;;;5107548;28;20015;-73
2022/10/19 07:30:48;;;;;;;14.85;6.38;;;8.50;99.90;;;;;;5095843;28;20023;-72
2022/10/19 07:33:13;;;;;;;14.15;6.53;;;8.50;99.90;;;;;;5109799;28;20115;-72
2022/10/19 07:35:39;;;;;;;12.43;6.63;;;8.60;99.90;;;;;;5109580;28;20016;-73
2022/10/19 07:38:04;;;;;;;15.68;6.22;;;8.60;99.90;;;;;;5109224;28;20028;-72
2022/10/19 07:40:30;;;;;;;15.30;6.63;;;8.60;99.90;;;;;;5107976;28;20499;-72
2022/10/19 07:42:56;;;;;;;17.58;8.65;;;8.70;99.90;;;;;;5098803;28;20132;-72
2022/10/19 07:45:21;;;;;;;24.33;10.50;;;8.70;99.90;;;;;;5089548;28;20028;-73
2022/10/19 07:47:47;;;;;;;16.00;6.90;;;8.70;99.90;;;;;;5104839;28;20028;-72
2022/10/19 07:50:12;;;;;;;15.90;6.68;;;8.80;99.90;;;;;;5109046;28;20132;-72
2022/10/19 07:52:38;;;;;;;14.05;6.72;;;8.80;99.90;;;;;;5105187;28;20395;-72
2022/10/19 07:55:04;;;;;;;15.82;7.03;;;8.90;99.90;;;;;;5103401;28;20099;-72
2022/10/19 07:57:29;;;;;;;16.85;6.95;;;8.90;99.90;;;;;;5104669;28;20020;-73
2022/10/19 07:59:55;;;;;;;13.35;6.70;;;9.00;99.90;;;;;;5109238;28;20360;-72
2022/10/19 08:02:20;;;;;;;14.65;6.97;;;9.00;99.90;;;;;;5109227;28;20033;-73
2022/10/19 08:04:46;;;;;;;17.50;7.15;;;9.10;99.90;;;;;;5108825;28;20089;-74
2022/10/19 08:07:11;;;;;;;18.25;6.55;;;9.20;99.90;;;;;;5103880;28;20024;-74
2022/10/19 08:09:37;;;;;;;17.08;6.50;;;9.30;99.90;;;;;;5104291;28;20106;-73
2022/10/19 08:12:04;;;;;;;17.25;7.05;;;9.30;99.90;;;;;;5106032;28;20017;-74
2022/10/19 08:14:30;;;;;;;17.90;7.00;;;9.40;99.90;;;;;;5105612;28;20069;-74
2022/10/19 08:16:56;;;;;;;19.20;7.18;;;9.50;99.90;;;;;;5107314;28;20073;-74
2022/10/19 08:19:23;;;;;;;16.55;6.40;;;9.60;99.90;;;;;;5104671;28;20098;-74
2022/10/19 08:21:49;;;;;;;17.90;7.05;;;9.80;99.90;;;;;;5108655;28;20055;-74
2022/10/19 08:24:17;;;;;;;14.52;6.72;;;9.80;99.90;;;;;;5104136;28;20035;-73
2022/10/19 08:26:43;;;;;;;13.85;6.05;;;10.00;99.90;;;;;;5102908;28;20032;-73
2022/10/19 08:29:18;;;;;;;12.10;6.10;;;10.10;99.90;;;;;;5108609;28;20016;-74
2022/10/19 08:31:45;;;;;;;14.80;6.18;;;10.20;99.90;;;;;;5101445;28;20115;-74
2022/10/19 08:34:14;;;;;;;12.98;4.50;;;10.30;99.90;;;;;;5107284;28;20110;-74
2022/10/19 08:36:39;;;;;;;13.18;4.65;;;10.40;99.90;;;;;;5108751;28;20024;-73
2022/10/19 08:39:07;;;;;;;11.25;5.20;;;10.50;99.90;;;;;;5111134;28;20023;-74
2022/10/19 08:41:38;;;;;;;12.85;4.53;;;10.60;99.90;;;;;;5109917;28;20023;-74
2022/10/19 08:44:58;;;;;;;11.70;4.10;;;10.80;99.90;;;;;;5110182;28;20409;-74
2022/10/19 08:47:39;;;;;;;15.65;3.85;;;10.90;99.90;;;;;;5011494;28;20209;-73
2022/10/19 08:50:34;;;;;;;9.02;3.40;;;11.00;99.90;;;;;;5007892;28;20083;-74
2022/10/19 08:53:03;;;;;;;13.30;3.45;;;11.10;99.90;;;;;;4989015;28;20029;-74
2022/10/19 08:55:55;;;;;;;10.63;3.40;;;11.20;99.90;;;;;;5009048;28;20608;-74
2022/10/19 08:58:24;;;;;;;9.18;3.15;;;11.30;99.90;;;;;;5006384;28;20030;-73
2022/10/19 09:01:38;;;;;;;10.02;3.17;;;11.40;99.90;;;;;;5010158;28;20034;-74
2022/10/19 09:04:06;;;;;;;10.43;2.85;;;11.60;99.90;;;;;;4969678;28;20045;-74
2022/10/19 09:07:00;;;;;;;9.38;2.65;;;11.70;99.90;;;;;;4969320;28;20031;-73
2022/10/19 09:09:30;;;;;;;17.02;3.08;;;11.80;99.90;;;;;;4969109;28;20066;-73
2022/10/19 09:12:03;;;;;;;6.78;2.53;;;11.90;99.90;;;;;;4969570;28;20023;-75
2022/10/19 09:14:35;;;;;;;7.13;2.42;;;11.90;99.90;;;;;;4967928;28;20073;-74
2022/10/19 09:17:08;;;;;;;10.50;2.95;;;12.00;99.90;;;;;;4969736;28;20102;-74
2022/10/19 09:19:33;;;;;;;11.57;2.85;;;12.10;99.90;;;;;;4968160;28;20038;-74
2022/10/19 09:22:31;;;;;;;10.50;2.88;;;12.20;99.90;;;;;;5006763;28;20060;-76
2022/10/19 09:25:07;;;;;;;10.68;2.45;;;12.30;99.90;;;;;;5014321;28;20396;-73
2022/10/19 09:27:39;;;;;;;6.72;2.05;;;12.40;99.90;;;;;;5022573;28;20084;-73
2022/10/19 09:30:15;;;;;;;10.63;2.30;;;12.50;99.90;;;;;;5007737;28;20042;-73
2022/10/19 09:32:41;;;;;;;9.38;2.10;;;12.60;99.90;;;;;;5024326;28;20021;-73
2022/10/19 09:35:06;;;;;;;7.13;2.13;;;12.70;99.90;;;;;;5063809;28;20115;-74
2022/10/19 09:37:45;;;;;;;8.40;2.20;;;12.70;99.90;;;;;;5089321;28;20547;-74
2022/10/19 09:40:17;;;;;;;7.53;2.17;;;12.80;99.90;;;;;;5085437;28;20024;-73
2022/10/19 09:42:43;;;;;;;4.05;1.90;;;12.80;99.90;;;;;;5086638;28;20468;-74
2022/10/19 09:45:27;;;;;;;5.30;2.08;;;12.80;99.90;;;;;;5078869;28;20132;-75
2022/10/19 09:47:53;;;;;;;4.75;2.20;;;12.90;99.90;;;;;;5080280;28;20099;-73
2022/10/19 09:50:20;;;;;;;12.07;2.33;;;13.00;99.90;;;;;;5105981;28;20134;-74
2022/10/19 09:53:02;;;;;;;8.85;2.00;;;13.10;99.90;;;;;;5103518;28;20438;-75
2022/10/19 09:55:46;;;;;;;10.82;2.03;;;13.10;99.90;;;;;;5106717;28;20674;-75
2022/10/19 09:58:12;;;;;;;6.20;1.70;;;13.20;99.90;;;;;;5102248;28;20035;-73
2022/10/19 10:00:44;;;;;;;7.25;2.58;;;13.10;99.90;;;;;;5109532;28;20015;-74
2022/10/19 10:03:34;;;;;;;7.10;3.45;;;13.20;99.90;;;;;;5089673;28;21971;-74
2022/10/19 10:06:12;;;;;;;81.18;54.53;;;13.20;99.90;;;;;;5095855;28;20503;-74
2022/10/19 10:08:48;;;;;;;8.48;1.90;;;13.20;99.90;;;;;;5106906;28;20035;-74
2022/10/19 10:11:22;;;;;;;6.13;1.55;;;13.30;99.90;;;;;;5104753;28;20125;-72
2022/10/19 10:13:50;;;;;;;9.55;2.10;;;13.30;99.90;;;;;;5109583;28;20020;-73
2022/10/19 10:16:18;;;;;;;8.00;1.52;;;13.40;99.90;;;;;;5101686;28;20031;-72
2022/10/19 10:19:10;;;;;;;8.15;1.73;;;13.40;99.90;;;;;;5104415;28;20024;-73
2022/10/19 10:21:49;;;;;;;6.07;1.65;;;13.40;99.90;;;;;;5106462;28;20038;-74
2022/10/19 10:24:15;;;;;;;6.25;1.60;;;13.40;99.90;;;;;;5099564;28;20028;-73
2022/10/19 10:26:45;;;;;;;10.25;1.88;;;13.40;99.90;;;;;;5107750;28;20154;-73
2022/10/19 10:29:20;;;;;;;9.13;3.53;;;13.50;99.90;;;;;;5099977;28;20549;-74
2022/10/19 10:31:50;;;;;;;6.05;1.77;;;13.60;99.90;;;;;;5096227;28;20490;-75
2022/10/19 10:34:30;;;;;;;9.15;3.28;;;13.60;99.90;;;;;;5103132;28;20106;-73
2022/10/19 10:36:56;;;;;;;7.70;1.85;;;13.60;99.90;;;;;;5098606;28;20024;-73
2022/10/19 10:39:25;;;;;;;9.40;1.80;;;13.60;99.90;;;;;;5104457;28;20035;-73
2022/10/19 10:41:52;;;;;;;9.07;2.17;;;13.70;99.90;;;;;;5100474;28;20027;-73
2022/10/19 10:44:29;;;;;;;9.55;2.03;;;13.80;99.90;;;;;;5106677;28;20084;-74
2022/10/19 10:46:57;;;;;;;8.43;1.55;;;13.80;99.90;;;;;;5098646;28;20032;-73
2022/10/19 10:49:28;;;;;;;6.13;2.00;;;13.90;99.90;;;;;;5104852;28;20048;-73
2022/10/19 10:51:58;;;;;;;4.82;1.90;;;14.00;99.90;;;;;;5108234;28;20024;-75
2022/10/19 10:54:27;;;;;;;5.88;1.60;;;14.10;99.90;;;;;;5107422;28;20015;-74
2022/10/19 10:57:04;;;;;;;6.95;1.90;;;14.10;99.90;;;;;;5102548;28;20050;-73
2022/10/19 10:59:51;;;;;;;11.77;2.00;;;14.20;99.90;;;;;;5108202;28;20030;-74
2022/10/19 11:02:31;;;;;;;5.35;1.55;;;14.20;99.90;;;;;;5100105;28;20554;-73
2022/10/19 11:05:04;;;;;;;10.40;1.98;;;14.30;99.90;;;;;;5107596;28;20138;-74
2022/10/19 11:07:33;;;;;;;5.78;1.73;;;14.30;99.90;;;;;;5104182;28;20114;-74
2022/10/19 11:10:08;;;;;;;8.05;1.90;;;14.40;99.90;;;;;;5104604;28;20023;-73
2022/10/19 11:12:42;;;;;;;9.95;2.15;;;14.40;99.90;;;;;;5098043;28;20027;-73
2022/10/19 11:15:26;;;;;;;8.07;1.95;;;14.40;99.90;;;;;;5089990;28;20387;-73
2022/10/19 11:18:05;;;;;;;5.38;2.20;;;14.50;99.90;;;;;;5096666;28;20107;-74
2022/10/19 11:20:33;;;;;;;6.70;1.90;;;14.70;99.90;;;;;;5108791;28;20031;-73
2022/10/19 11:22:59;;;;;;;6.88;1.80;;;14.80;99.90;;;;;;5104754;28;20020;-73
2022/10/19 11:25:48;;;;;;;6.75;1.88;;;14.90;99.90;;;;;;5100233;28;20479;-73
2022/10/19 11:28:40;;;;;;;7.85;1.65;;;15.00;99.90;;;;;;5096218;28;20038;-74
2022/10/19 11:31:12;;;;;;;6.38;1.90;;;15.00;99.90;;;;;;5086699;28;20085;-73
2022/10/19 11:33:47;;;;;;;8.35;1.85;;;15.10;99.90;;;;;;5106649;28;20058;-73
2022/10/19 11:36:13;;;;;;;5.72;1.70;;;15.10;99.90;;;;;;5109356;28;20030;-73
2022/10/19 11:38:44;;;;;;;8.63;1.83;;;15.10;99.90;;;;;;5089982;28;20023;-73
2022/10/19 11:41:34;;;;;;;6.50;1.73;;;15.10;99.90;;;;;;5101689;28;20020;-74
2022/10/19 11:44:03;;;;;;;7.43;1.80;;;15.20;99.90;;;;;;5096022;28;20069;-74
2022/10/19 11:46:46;;;;;;;8.63;2.17;;;15.20;99.90;;;;;;5080511;28;20015;-73
2022/10/19 11:49:27;;;;;;;4.95;1.85;;;15.20;99.90;;;;;;5095291;28;20400;-74
2022/10/19 11:52:17;;;;;;;6.18;1.55;;;15.30;99.90;;;;;;5105133;28;20109;-74
2022/10/19 11:54:48;;;;;;;5.88;1.60;;;15.40;99.90;;;;;;5098451;28;20471;-73
2022/10/19 11:57:19;;;;;;;7.72;1.50;;;15.40;99.90;;;;;;5106462;28;20140;-73
2022/10/19 12:00:03;;;;;;;9.20;1.55;;;15.40;99.90;;;;;;5105416;28;20039;-72
2022/10/19 12:02:53;;;;;;;2.75;1.25;;;15.50;99.90;;;;;;5104702;28;20035;-72
2022/10/19 12:05:25;;;;;;;6.78;1.50;;;15.50;99.90;;;;;;5099797;28;20028;-72
2022/10/19 12:07:55;;;;;;;4.05;1.33;;;15.50;99.90;;;;;;5108575;28;20435;-71
2022/10/19 12:10:39;;;;;;;6.20;1.40;;;15.50;99.90;;;;;;5109830;28;20016;-72
2022/10/19 12:13:10;;;;;;;5.43;1.33;;;15.50;99.90;;;;;;5110015;28;20028;-73
2022/10/19 12:15:43;;;;;;;6.78;1.67;;;15.60;99.90;;;;;;5102666;28;20028;-72
2022/10/19 12:18:34;;;;;;;5.97;1.80;;;15.70;99.90;;;;;;5101969;28;20020;-72
2022/10/19 12:21:07;;;;;;;5.35;1.63;;;15.70;99.90;;;;;;5105346;28;20430;-72
2022/10/19 12:23:36;;;;;;;7.68;2.00;;;15.70;99.90;;;;;;5101041;28;20445;-72
2022/10/19 12:26:09;;;;;;;5.53;2.00;;;15.70;99.90;;;;;;5092807;28;20695;-71
2022/10/19 12:28:39;;;;;;;6.88;2.30;;;15.70;99.90;;;;;;5093837;28;20037;-72
2022/10/19 12:31:06;;;;;;;7.10;2.28;;;15.70;99.90;;;;;;5101121;28;20447;-72
2022/10/19 12:33:35;;;;;;;8.23;2.20;;;15.70;99.90;;;;;;5103431;28;20529;-72
2022/10/19 12:36:14;;;;;;;5.90;2.10;;;15.80;99.90;;;;;;5094874;28;20050;-72
2022/10/19 12:38:59;;;;;;;5.45;2.08;;;15.90;99.90;;;;;;5096715;28;20020;-72
2022/10/19 12:41:58;;;;;;;7.78;2.15;;;15.90;99.90;;;;;;5111662;28;20386;-72
2022/10/19 12:44:52;;;;;;;6.30;2.10;;;15.90;99.90;;;;;;5098340;28;20151;-73
2022/10/19 12:47:22;;;;;;;3.70;1.80;;;16.00;99.90;;;;;;5106225;28;20032;-73
2022/10/19 12:49:50;;;;;;;6.72;2.15;;;16.00;99.90;;;;;;5100201;28;20052;-71
2022/10/19 12:52:38;;;;;;;7.68;2.20;;;16.00;99.90;;;;;;5107283;28;20031;-73
2022/10/19 12:55:26;;;;;;;5.90;2.10;;;16.00;99.90;;;;;;5102869;28;20515;-72
2022/10/19 12:57:59;;;;;;;4.20;1.75;;;16.00;99.90;;;;;;5112034;28;20034;-72
2022/10/19 13:00:31;;;;;;;5.97;1.73;;;16.00;99.90;;;;;;5111592;28;20387;-72
2022/10/19 13:03:19;;;;;;;5.60;1.95;;;15.90;99.90;;;;;;5109492;28;20020;-72